Time;durP1;ratioP1;P1;durP2;ratioP2;P2;SDS_P1;SDS_P2;PMS_P1;PMS_P2;Temp;Humidity;BMP_temperature;BMP_pressure;BME280_temperature;BME280_humidity;BME280_pressure;Samples;Min_cycle;Max_cycle;Signal;HPM_P1;HPM_P2
2022/08/17 00:00:30;;;;;;;32.75;24.17;;;18.70;99.90;;;;;;5040611;28;20106;-61
2022/08/17 00:03:09;;;;;;;32.90;25.02;;;18.60;99.90;;;;;;5036790;28;20420;-59
2022/08/17 00:05:42;;;;;;;32.97;22.27;;;18.70;99.90;;;;;;5041614;28;20424;-59
2022/08/17 00:08:08;;;;;;;27.30;20.45;;;18.70;99.90;;;;;;5035328;28;20032;-59
2022/08/17 00:10:34;;;;;;;30.75;22.77;;;18.60;99.90;;;;;;5042492;28;20520;-59
2022/08/17 00:13:09;;;;;;;34.90;25.98;;;18.50;99.90;;;;;;5045393;28;20044;-59
2022/08/17 00:15:35;;;;;;;39.40;26.00;;;18.50;99.90;;;;;;5046074;28;20124;-59
2022/08/17 00:18:00;;;;;;;45.58;29.20;;;18.60;99.90;;;;;;5036909;28;20144;-60
2022/08/17 00:20:26;;;;;;;77.15;29.52;;;18.60;99.90;;;;;;5036210;28;20045;-59
2022/08/17 00:23:19;;;;;;;67.38;31.13;;;18.60;99.90;;;;;;5042842;28;20108;-60
2022/08/17 00:25:46;;;;;;;68.10;31.45;;;18.60;99.90;;;;;;5048100;28;20523;-59
2022/08/17 00:28:14;;;;;;;91.75;31.67;;;18.70;99.90;;;;;;5035459;28;20091;-59
2022/08/17 00:30:41;;;;;;;84.05;32.25;;;18.70;99.90;;;;;;5039310;28;20051;-59
2022/08/17 00:33:10;;;;;;;103.82;31.05;;;18.60;99.90;;;;;;5042053;28;20143;-59
2022/08/17 00:35:37;;;;;;;129.00;32.90;;;18.70;99.90;;;;;;5040831;28;20392;-59
2022/08/17 00:38:05;;;;;;;92.45;31.70;;;18.70;99.90;;;;;;5035254;28;20045;-59
2022/08/17 00:40:31;;;;;;;91.28;30.58;;;18.60;99.90;;;;;;5037251;28;20049;-59
2022/08/17 00:43:08;;;;;;;79.28;29.13;;;18.60;99.90;;;;;;5045507;28;20481;-60
2022/08/17 00:45:34;;;;;;;76.35;29.65;;;18.60;99.90;;;;;;5033226;28;20116;-59
2022/08/17 00:47:59;;;;;;;50.35;27.70;;;18.50;99.90;;;;;;5040503;28;20129;-59
2022/08/17 00:50:25;;;;;;;101.55;29.83;;;18.50;99.90;;;;;;5040049;28;20037;-59
2022/08/17 00:52:54;;;;;;;116.18;30.48;;;18.50;99.90;;;;;;5029132;28;20040;-60
2022/08/17 00:55:22;;;;;;;128.32;29.38;;;18.50;99.90;;;;;;5043691;28;20093;-60
2022/08/17 00:57:52;;;;;;;43.67;24.60;;;18.40;99.90;;;;;;5041669;28;20115;-59
2022/08/17 01:00:25;;;;;;;97.65;29.48;;;18.30;99.90;;;;;;5044009;28;20389;-58
2022/08/17 01:02:55;;;;;;;64.32;27.63;;;18.30;99.90;;;;;;5036643;28;20060;-60
2022/08/17 01:05:24;;;;;;;48.47;25.80;;;18.30;99.90;;;;;;5042617;28;20040;-59
2022/08/17 01:07:50;;;;;;;31.65;24.52;;;18.20;99.90;;;;;;5040614;28;20041;-59
2022/08/17 01:10:21;;;;;;;31.23;25.60;;;18.10;99.90;;;;;;5048865;28;20060;-59
2022/08/17 01:12:48;;;;;;;28.67;24.20;;;18.10;99.90;;;;;;5045689;28;20043;-60
2022/08/17 01:15:14;;;;;;;37.88;26.17;;;18.10;99.90;;;;;;5030973;28;20116;-59
2022/08/17 01:17:40;;;;;;;66.10;27.77;;;18.10;99.90;;;;;;5047031;28;20504;-60
2022/08/17 01:20:07;;;;;;;51.25;26.58;;;18.00;99.90;;;;;;5037940;28;20076;-60
2022/08/17 01:22:33;;;;;;;59.95;27.52;;;18.10;99.90;;;;;;5035661;28;20117;-59
2022/08/17 01:25:01;;;;;;;65.22;28.73;;;18.10;99.90;;;;;;5044162;28;20545;-59
2022/08/17 01:27:27;;;;;;;63.30;27.35;;;18.10;99.90;;;;;;5031637;28;20036;-60
2022/08/17 01:29:57;;;;;;;38.55;26.15;;;18.10;99.90;;;;;;5042515;28;20037;-60
2022/08/17 01:32:24;;;;;;;;;;;18.00;99.90;;;;;;5036318;28;20120;-59
2022/08/17 01:34:51;;;;;;;33.42;25.83;;;18.00;99.90;;;;;;5041402;28;19916;-60
2022/08/17 01:37:20;;;;;;;33.00;25.58;;;17.90;99.90;;;;;;5040558;28;20488;-59
2022/08/17 01:39:54;;;;;;;30.75;25.35;;;17.80;99.90;;;;;;5040493;28;20513;-59
2022/08/17 01:42:23;;;;;;;28.25;24.25;;;17.70;99.90;;;;;;5043234;28;20077;-60
2022/08/17 01:44:55;;;;;;;40.00;24.73;;;17.70;99.90;;;;;;5044777;28;20071;-59
2022/08/17 01:47:21;;;;;;;32.83;24.17;;;17.70;99.90;;;;;;5039380;28;20508;-59
2022/08/17 01:49:46;;;;;;;25.58;22.67;;;17.70;99.90;;;;;;5043654;28;20033;-59
2022/08/17 01:52:13;;;;;;;30.95;25.30;;;17.70;99.90;;;;;;5042468;28;20037;-59
2022/08/17 01:54:42;;;;;;;30.33;25.15;;;17.60;99.90;;;;;;5046771;28;20115;-59
2022/08/17 01:57:08;;;;;;;28.95;23.50;;;17.60;99.90;;;;;;5044842;28;20040;-59
2022/08/17 01:59:33;;;;;;;31.08;25.02;;;17.60;99.90;;;;;;5035530;28;20036;-59
2022/08/17 02:01:59;;;;;;;42.72;27.27;;;17.50;99.90;;;;;;5033352;28;20053;-59
2022/08/17 02:04:25;;;;;;;33.13;26.15;;;17.40;99.90;;;;;;5043961;28;20087;-60
2022/08/17 02:06:51;;;;;;;30.95;25.45;;;17.40;99.90;;;;;;5042114;28;20044;-59
2022/08/17 02:09:17;;;;;;;24.20;21.58;;;17.40;99.90;;;;;;5035595;28;20369;-60
2022/08/17 02:11:42;;;;;;;26.73;20.40;;;17.40;99.90;;;;;;5037695;28;20052;-59
2022/08/17 02:14:09;;;;;;;20.98;18.52;;;17.50;99.90;;;;;;5032996;28;20037;-59
2022/08/17 02:16:39;;;;;;;36.63;20.60;;;17.50;99.90;;;;;;5040608;28;20076;-59
2022/08/17 02:19:08;;;;;;;25.50;20.80;;;17.50;99.90;;;;;;5043330;28;20047;-60
2022/08/17 02:21:35;;;;;;;27.40;22.60;;;17.40;99.90;;;;;;5045359;28;20083;-60
2022/08/17 02:24:03;;;;;;;22.92;20.45;;;17.40;99.90;;;;;;5052186;28;20037;-59
2022/08/17 02:26:28;;;;;;;22.70;20.30;;;17.40;99.90;;;;;;5035140;28;20504;-59
2022/08/17 02:28:54;;;;;;;22.90;20.50;;;17.30;99.90;;;;;;5042160;28;20067;-59
2022/08/17 02:31:20;;;;;;;39.35;22.23;;;17.40;99.90;;;;;;5042428;28;20033;-58
2022/08/17 02:33:45;;;;;;;25.13;21.63;;;17.40;99.90;;;;;;5047540;28;20079;-61
2022/08/17 02:36:12;;;;;;;34.10;21.45;;;17.40;99.90;;;;;;5046227;28;20056;-60
2022/08/17 02:38:38;;;;;;;23.85;19.15;;;17.40;99.90;;;;;;5038622;28;20120;-59
2022/08/17 02:41:04;;;;;;;24.38;21.23;;;17.40;99.90;;;;;;5045149;28;20114;-59
2022/08/17 02:43:30;;;;;;;23.30;20.70;;;17.40;99.90;;;;;;5044967;28;20037;-59
2022/08/17 02:45:56;;;;;;;25.52;21.95;;;17.40;99.90;;;;;;5050797;28;20123;-59
2022/08/17 02:48:22;;;;;;;28.45;21.00;;;17.30;99.90;;;;;;5040609;28;20029;-59
2022/08/17 02:50:48;;;;;;;25.13;21.90;;;17.30;99.90;;;;;;5041670;28;20484;-59
2022/08/17 02:53:14;;;;;;;30.35;23.90;;;17.30;99.90;;;;;;5037402;28;20037;-60
2022/08/17 02:55:41;;;;;;;33.40;22.23;;;17.20;99.90;;;;;;5047430;28;20087;-59
2022/08/17 02:58:07;;;;;;;35.30;23.17;;;17.30;99.90;;;;;;5041225;28;20489;-59
2022/08/17 03:00:36;;;;;;;50.58;24.30;;;17.30;99.90;;;;;;5017066;28;20045;-60
2022/08/17 03:03:04;;;;;;;66.28;25.45;;;17.30;99.90;;;;;;5038353;28;20061;-59
2022/08/17 03:05:31;;;;;;;40.83;24.98;;;17.20;99.90;;;;;;5035173;28;20033;-59
2022/08/17 03:07:58;;;;;;;61.25;26.42;;;17.30;99.90;;;;;;5037790;28;20087;-60
2022/08/17 03:10:24;;;;;;;65.70;24.58;;;17.20;99.90;;;;;;5040859;28;20039;-59
2022/08/17 03:12:51;;;;;;;45.53;25.00;;;17.20;99.90;;;;;;5044671;28;20048;-59
2022/08/17 03:15:20;;;;;;;77.10;26.67;;;17.20;99.90;;;;;;5035398;28;20042;-60
2022/08/17 03:17:46;;;;;;;128.48;28.60;;;17.20;99.90;;;;;;5046828;28;20091;-59
2022/08/17 03:20:13;;;;;;;92.10;27.83;;;17.20;99.90;;;;;;5039115;28;20048;-60
2022/08/17 03:22:44;;;;;;;59.33;28.17;;;17.10;99.90;;;;;;5041875;28;20029;-59
2022/08/17 03:25:13;;;;;;;46.92;25.33;;;17.10;99.90;;;;;;5046796;28;20051;-60
2022/08/17 03:27:38;;;;;;;39.00;26.20;;;17.10;99.90;;;;;;5044900;28;20075;-59
2022/08/17 03:30:06;;;;;;;32.63;25.48;;;17.00;99.90;;;;;;5045701;28;20716;-59
2022/08/17 03:32:38;;;;;;;43.08;25.33;;;17.00;99.90;;;;;;5042013;28;20124;-59
2022/08/17 03:35:05;;;;;;;72.55;28.00;;;17.00;99.90;;;;;;5045806;28;20128;-59
2022/08/17 03:37:30;;;;;;;46.00;24.85;;;17.00;99.90;;;;;;5046039;28;20044;-60
2022/08/17 03:39:56;;;;;;;40.47;23.35;;;17.00;99.90;;;;;;5045413;28;20044;-60
2022/08/17 03:42:24;;;;;;;48.47;25.80;;;17.00;99.90;;;;;;5041068;28;20041;-59
2022/08/17 03:44:54;;;;;;;75.20;27.00;;;17.00;99.90;;;;;;5033675;28;20053;-59
2022/08/17 03:58:21;;;;;;;54.20;26.45;;;17.10;99.90;;;;;;5037440;28;20144;-59
2022/08/17 04:00:48;;;;;;;86.82;27.70;;;17.10;99.90;;;;;;5038120;28;20121;-59
2022/08/17 04:03:14;;;;;;;40.50;26.98;;;17.10;99.90;;;;;;5044071;28;20378;-59
2022/08/17 04:05:39;;;;;;;41.45;28.75;;;17.00;99.90;;;;;;5037880;28;20083;-59
2022/08/17 04:08:05;;;;;;;44.75;28.58;;;17.00;99.90;;;;;;5038241;28;21626;-58
2022/08/17 04:10:32;;;;;;;37.80;27.20;;;17.00;99.90;;;;;;5041973;28;20190;-60
2022/08/17 04:12:58;;;;;;;53.88;28.00;;;17.10;99.90;;;;;;5049706;28;20207;-60
2022/08/17 04:15:24;;;;;;;75.68;28.88;;;17.10;99.90;;;;;;5042714;28;20048;-59
2022/08/17 04:17:50;;;;;;;100.30;31.30;;;17.10;99.90;;;;;;5038961;28;20033;-59
2022/08/17 04:20:19;;;;;;;61.67;27.83;;;17.10;99.90;;;;;;5036428;28;20584;-59
2022/08/17 04:22:58;;;;;;;49.70;28.60;;;17.20;99.90;;;;;;5043348;28;20102;-60
2022/08/17 04:25:26;;;;;;;85.70;30.90;;;17.20;99.90;;;;;;5043737;28;20041;-59
2022/08/17 04:27:52;;;;;;;42.35;28.33;;;17.20;99.90;;;;;;5038214;28;20041;-59
2022/08/17 04:30:18;;;;;;;72.75;30.85;;;17.20;99.90;;;;;;5043069;28;20036;-59
2022/08/17 04:33:04;;;;;;;60.20;30.80;;;17.20;99.90;;;;;;5031880;28;20037;-59
2022/08/17 04:35:33;;;;;;;39.33;28.95;;;17.20;99.90;;;;;;5033844;28;20036;-60
2022/08/17 04:37:58;;;;;;;38.45;27.88;;;17.20;99.90;;;;;;5035385;28;20045;-59
2022/08/17 04:43:16;;;;;;;37.03;28.38;;;17.30;99.90;;;;;;5038886;28;20573;-59
2022/08/17 04:45:50;;;;;;;35.75;28.23;;;17.30;99.90;;;;;;5038876;28;20104;-59
2022/08/17 04:48:15;;;;;;;40.70;28.55;;;17.40;99.90;;;;;;5037242;28;20087;-60
2022/08/17 04:50:46;;;;;;;38.53;28.58;;;17.40;99.90;;;;;;5040493;28;20037;-59
2022/08/17 04:53:13;;;;;;;38.92;28.73;;;17.50;99.90;;;;;;5040575;28;20080;-58
2022/08/17 04:55:39;;;;;;;40.90;29.60;;;17.50;99.90;;;;;;5039117;28;20045;-60
2022/08/17 04:58:05;;;;;;;38.78;28.25;;;17.50;99.90;;;;;;5036868;28;20934;-58
2022/08/17 05:00:31;;;;;;;39.88;28.65;;;17.60;99.90;;;;;;5035011;28;20046;-59
2022/08/17 05:02:57;;;;;;;47.00;32.80;;;17.60;99.90;;;;;;5045477;28;20511;-60
2022/08/17 05:05:29;;;;;;;43.15;30.55;;;17.50;99.90;;;;;;5041886;28;20029;-60
2022/08/17 05:07:56;;;;;;;43.17;30.55;;;17.50;99.90;;;;;;5040206;28;20037;-59
2022/08/17 05:10:24;;;;;;;45.40;32.15;;;17.60;99.90;;;;;;5040270;28;20056;-59
2022/08/17 05:13:01;;;;;;;51.05;35.70;;;17.50;99.90;;;;;;5043327;28;20693;-59
2022/08/17 05:15:28;;;;;;;49.85;33.47;;;17.50;99.90;;;;;;5037028;28;20067;-59
2022/08/17 05:17:54;;;;;;;53.38;35.17;;;17.50;99.90;;;;;;5039684;28;20107;-59
2022/08/17 05:20:20;;;;;;;45.42;31.60;;;17.50;99.90;;;;;;5039937;28;20037;-59
2022/08/17 05:22:55;;;;;;;48.17;34.78;;;17.60;99.90;;;;;;5042827;28;20041;-60
2022/08/17 05:25:23;;;;;;;58.65;34.63;;;17.60;99.90;;;;;;5047567;28;20044;-59
2022/08/17 05:27:49;;;;;;;49.90;34.45;;;17.60;99.90;;;;;;5033099;28;20080;-59
2022/08/17 05:30:16;;;;;;;50.05;34.25;;;17.60;99.90;;;;;;5045903;28;20072;-58
2022/08/17 05:32:58;;;;;;;50.17;34.08;;;17.60;99.90;;;;;;5041119;28;20046;-59
2022/08/17 05:35:26;;;;;;;45.85;31.58;;;17.70;99.90;;;;;;5039749;28;20036;-59
2022/08/17 05:37:52;;;;;;;48.38;33.45;;;17.70;99.90;;;;;;5041852;28;20044;-59
2022/08/17 05:40:19;;;;;;;52.95;34.55;;;17.70;99.90;;;;;;5036989;28;20040;-61
2022/08/17 05:42:45;;;;;;;50.28;33.78;;;17.80;99.90;;;;;;5041630;28;20073;-59
2022/08/17 05:45:14;;;;;;;54.95;34.90;;;17.80;99.90;;;;;;5039014;28;20076;-60
2022/08/17 05:47:41;;;;;;;56.78;35.53;;;17.80;99.90;;;;;;5034111;28;20037;-59
2022/08/17 05:50:09;;;;;;;57.63;37.03;;;17.80;99.90;;;;;;5040234;28;20033;-60
2022/08/17 05:53:04;;;;;;;56.80;35.67;;;17.90;99.90;;;;;;5046996;28;20044;-60
2022/08/17 05:55:42;;;;;;;66.50;39.22;;;18.00;99.90;;;;;;5044600;28;20037;-59
2022/08/17 05:58:44;;;;;;;60.60;38.20;;;18.00;99.90;;;;;;5043050;28;20044;-59
2022/08/17 06:01:39;;;;;;;57.22;37.05;;;18.00;99.90;;;;;;5026740;28;20045;-59
2022/08/17 06:04:24;;;;;;;55.30;36.13;;;18.00;99.90;;;;;;5036149;28;20203;-58
2022/08/17 06:07:19;;;;;;;60.00;37.25;;;18.10;99.90;;;;;;5038686;28;20516;-60
2022/08/17 06:09:56;;;;;;;56.65;36.83;;;18.10;99.90;;;;;;5038771;28;20042;-59
2022/08/17 06:12:47;;;;;;;56.67;35.78;;;18.10;99.90;;;;;;5034017;28;20397;-59
2022/08/17 06:15:22;;;;;;;59.90;37.58;;;18.20;99.90;;;;;;5039492;28;20045;-59
2022/08/17 06:17:51;;;;;;;71.55;38.10;;;18.20;99.90;;;;;;5037461;28;20461;-60
2022/08/17 06:20:17;;;;;;;57.63;37.78;;;18.20;99.90;;;;;;5040117;28;20052;-60
2022/08/17 06:22:50;;;;;;;58.75;36.65;;;18.20;99.90;;;;;;5043643;28;20428;-59
2022/08/17 06:25:41;;;;;;;55.08;35.92;;;18.20;99.90;;;;;;5045968;28;21859;-58
2022/08/17 06:28:15;;;;;;;59.08;35.30;;;18.20;99.90;;;;;;5029802;28;20052;-60
2022/08/17 06:31:06;;;;;;;53.92;35.53;;;18.20;99.90;;;;;;5038175;28;20516;-59
2022/08/17 06:33:36;;;;;;;63.88;38.63;;;18.20;99.90;;;;;;5050524;28;20062;-59
2022/08/17 06:36:29;;;;;;;74.17;41.97;;;18.20;99.90;;;;;;5037458;28;20469;-60
2022/08/17 06:39:20;;;;;;;74.38;40.17;;;18.30;99.90;;;;;;5046033;28;20047;-60
2022/08/17 06:42:24;;;;;;;74.03;43.10;;;18.40;99.90;;;;;;5050641;28;20099;-60
2022/08/17 06:45:03;;;;;;;67.82;41.35;;;18.40;99.90;;;;;;5043028;28;20044;-60
2022/08/17 06:47:35;;;;;;;68.60;42.80;;;18.50;99.90;;;;;;5050574;28;20049;-59
2022/08/17 06:50:16;;;;;;;72.63;43.25;;;18.50;99.90;;;;;;5041183;28;20046;-59
2022/08/17 06:52:53;;;;;;;69.03;42.33;;;18.60;99.90;;;;;;5042229;28;20058;-60
2022/08/17 06:55:33;;;;;;;78.20;46.05;;;18.70;99.90;;;;;;5037463;28;20041;-59
2022/08/17 06:58:04;;;;;;;70.57;42.70;;;18.70;99.90;;;;;;5046526;28;20060;-60
2022/08/17 07:00:36;;;;;;;71.28;43.75;;;18.70;99.90;;;;;;5037757;28;20033;-60
2022/08/17 07:03:26;;;;;;;74.03;43.75;;;18.70;99.90;;;;;;5041522;28;20044;-59
2022/08/17 07:06:04;;;;;;;64.78;42.10;;;18.80;99.90;;;;;;5050544;28;20401;-59
2022/08/17 07:08:37;;;;;;;69.18;43.70;;;18.80;99.90;;;;;;5040554;28;20033;-59
2022/08/17 07:11:34;;;;;;;75.90;45.80;;;18.80;99.90;;;;;;5042048;28;20378;-59
2022/08/17 07:14:13;;;;;;;66.85;41.85;;;18.90;99.90;;;;;;5031865;28;20481;-59
2022/08/17 07:16:45;;;;;;;65.63;39.78;;;19.00;99.90;;;;;;5042908;28;20047;-60
2022/08/17 07:19:17;;;;;;;67.70;41.83;;;19.10;99.90;;;;;;5051715;28;20056;-59
2022/08/17 07:21:47;;;;;;;61.30;40.28;;;19.20;99.90;;;;;;5048693;28;20029;-59
2022/08/17 07:24:28;;;;;;;;;;;19.30;99.90;;;;;;5036302;28;20385;-59
2022/08/17 07:27:02;;;;;;;;;;;19.30;99.90;;;;;;5053683;28;19917;-60
2022/08/17 07:29:31;;;;;;;58.75;37.67;;;19.40;99.90;;;;;;5026951;28;19944;-59
2022/08/17 07:31:58;;;;;;;64.20;38.05;;;19.40;99.90;;;;;;5050210;28;20060;-59
2022/08/17 07:34:23;;;;;;;62.63;37.97;;;19.50;99.90;;;;;;5038276;28;20037;-60
2022/08/17 07:37:04;;;;;;;62.50;37.03;;;19.50;99.90;;;;;;5049884;28;20079;-59
2022/08/17 07:39:30;;;;;;;56.30;36.13;;;19.60;99.90;;;;;;5048637;28;20040;-60
2022/08/17 07:42:03;;;;;;;59.53;37.10;;;19.70;99.90;;;;;;5040882;28;20447;-60
2022/08/17 07:44:28;;;;;;;55.95;36.50;;;19.90;99.90;;;;;;5049848;28;20045;-59
2022/08/17 07:49:44;;;;;;;50.25;33.10;;;20.00;99.90;;;;;;5052713;28;20469;-60
2022/08/17 07:52:31;;;;;;;49.25;34.45;;;20.00;99.90;;;;;;5047544;28;20511;-60
2022/08/17 07:54:57;;;;;;;48.63;33.00;;;20.10;99.90;;;;;;5048037;28;20545;-60
2022/08/17 07:57:31;;;;;;;45.05;31.10;;;20.30;99.90;;;;;;5043551;28;20073;-59
2022/08/17 07:59:59;;;;;;;43.97;31.88;;;20.60;99.90;;;;;;5050941;28;20048;-60
2022/08/17 08:02:26;;;;;;;41.08;29.65;;;21.10;99.90;;;;;;5039023;28;20500;-60
2022/08/17 08:05:11;;;;;;;39.70;29.30;;;21.40;99.90;;;;;;5046840;28;20512;-60
2022/08/17 08:07:49;;;;;;;35.13;26.20;;;21.80;99.90;;;;;;5047375;28;20044;-60
2022/08/17 08:10:29;;;;;;;37.22;26.23;;;22.20;99.90;;;;;;5028994;28;20515;-60
2022/08/17 08:13:19;;;;;;;33.17;24.83;;;22.60;99.90;;;;;;5033122;28;20041;-60
2022/08/17 08:15:48;;;;;;;34.07;25.13;;;22.80;99.90;;;;;;5036539;28;20083;-60
2022/08/17 08:18:28;;;;;;;30.42;24.17;;;22.80;99.90;;;;;;5032652;28;20094;-59
2022/08/17 08:21:07;;;;;;;30.52;23.77;;;22.90;99.90;;;;;;5032982;28;20122;-60
2022/08/17 08:23:48;;;;;;;28.80;23.00;;;23.00;99.90;;;;;;5049816;28;20090;-61
2022/08/17 08:26:46;;;;;;;26.17;21.80;;;23.10;99.90;;;;;;5046488;28;20431;-61
2022/08/17 08:29:29;;;;;;;26.65;20.38;;;23.20;99.90;;;;;;5038059;28;20660;-61
2022/08/17 08:32:22;;;;;;;26.02;21.70;;;23.40;99.90;;;;;;5050224;28;20124;-62
2022/08/17 08:35:08;;;;;;;27.27;22.08;;;23.60;99.90;;;;;;5047480;28;20033;-61
2022/08/17 08:37:37;;;;;;;26.42;19.80;;;23.60;98.90;;;;;;5051648;28;20037;-62
2022/08/17 08:40:35;;;;;;;24.45;20.65;;;23.70;99.90;;;;;;5034925;28;20500;-62
2022/08/17 08:43:15;;;;;;;22.13;17.90;;;23.90;97.90;;;;;;5045349;28;20037;-62
2022/08/17 08:46:04;;;;;;;23.23;18.13;;;24.00;96.90;;;;;;5041755;28;20073;-62
2022/08/17 08:48:38;;;;;;;23.13;16.30;;;24.30;96.70;;;;;;5038371;28;20459;-62
2022/08/17 08:51:20;;;;;;;18.58;15.65;;;24.80;96.10;;;;;;5048966;28;20051;-62
2022/08/17 08:53:57;;;;;;;19.88;17.48;;;25.00;94.60;;;;;;5032482;28;20120;-62
2022/08/17 08:56:31;;;;;;;17.45;15.18;;;25.00;93.40;;;;;;5044860;28;20068;-62
2022/08/17 08:59:32;;;;;;;17.20;15.18;;;24.80;94.50;;;;;;5031622;28;20052;-62
2022/08/17 09:02:21;;;;;;;20.52;15.82;;;25.00;92.80;;;;;;5048730;28;20528;-62
2022/08/17 09:05:16;;;;;;;18.87;15.80;;;25.20;93.20;;;;;;5041089;28;20049;-62
2022/08/17 09:07:59;;;;;;;23.00;15.30;;;25.30;92.70;;;;;;5052464;28;20303;-62
2022/08/17 09:10:48;;;;;;;21.67;15.88;;;25.10;93.40;;;;;;5058506;28;20098;-62
2022/08/17 09:13:23;;;;;;;20.10;15.93;;;24.90;92.40;;;;;;5045694;28;20045;-62
2022/08/17 09:15:56;;;;;;;20.42;17.98;;;24.70;93.30;;;;;;5033654;28;20045;-62
2022/08/17 09:18:27;;;;;;;23.08;18.60;;;24.50;93.40;;;;;;5033517;28;20424;-62
2022/08/17 09:21:04;;;;;;;25.20;20.65;;;24.30;93.90;;;;;;5029134;28;20487;-62
2022/08/17 09:23:35;;;;;;;25.08;20.42;;;24.20;93.90;;;;;;5031694;28;20037;-62
2022/08/17 09:26:21;;;;;;;20.77;18.08;;;23.90;94.50;;;;;;5046451;28;20060;-62
2022/08/17 09:28:54;;;;;;;21.92;18.60;;;23.70;94.50;;;;;;5046909;28;20690;-62
2022/08/17 09:31:25;;;;;;;20.65;17.63;;;23.70;94.90;;;;;;5047791;28;20053;-62
2022/08/17 09:33:54;;;;;;;23.10;18.85;;;23.70;95.20;;;;;;5050753;28;20048;-62
2022/08/17 09:36:30;;;;;;;22.35;18.27;;;23.70;95.30;;;;;;5034093;28;20191;-62
2022/08/17 09:39:11;;;;;;;27.95;19.63;;;23.70;95.40;;;;;;5037370;28;20080;-62
2022/08/17 09:41:46;;;;;;;25.42;18.90;;;23.70;95.70;;;;;;5032120;28;20049;-62
2022/08/17 09:44:21;;;;;;;26.92;20.10;;;23.70;95.80;;;;;;5032543;28;20037;-62
2022/08/17 09:46:49;;;;;;;24.00;19.13;;;23.70;95.90;;;;;;5041011;28;20056;-62
2022/08/17 09:49:27;;;;;;;26.98;19.58;;;23.80;95.90;;;;;;5041935;28;20072;-62
2022/08/17 09:52:09;;;;;;;25.38;19.13;;;23.90;95.40;;;;;;5034018;28;20092;-62
2022/08/17 09:54:40;;;;;;;29.80;19.27;;;24.10;95.20;;;;;;5032473;28;20493;-62
2022/08/17 09:57:21;;;;;;;25.02;18.08;;;24.30;94.80;;;;;;5039826;28;20420;-62
2022/08/17 10:00:10;;;;;;;25.50;18.88;;;24.60;94.10;;;;;;5047128;28;20055;-62
2022/08/17 10:03:07;;;;;;;23.63;18.38;;;24.80;93.40;;;;;;5044012;28;20128;-62
2022/08/17 10:05:45;;;;;;;22.73;17.63;;;25.10;93.20;;;;;;5037179;28;20143;-63
2022/08/17 10:08:41;;;;;;;24.00;18.10;;;25.60;92.00;;;;;;5048720;28;20500;-63
2022/08/17 10:12:14;;;;;;;23.15;17.75;;;25.80;91.10;;;;;;5031668;28;20045;-62
2022/08/17 10:14:22;;;;;;;28.38;21.90;;;26.00;90.70;;;;;;5042174;28;20135;-63
2022/08/17 10:16:55;;;;;;;26.65;20.00;;;26.00;90.20;;;;;;5047409;28;20055;-63
2022/08/17 10:20:10;;;;;;;24.25;17.33;;;26.00;90.30;;;;;;5046772;28;20411;-62
2022/08/17 10:28:48;;;;;;;31.42;23.20;;;25.80;90.20;;;;;;5034956;28;20393;-64
2022/08/17 10:31:30;;;;;;;30.00;19.70;;;25.60;90.00;;;;;;5033357;28;20079;-63
2022/08/17 10:34:22;;;;;;;38.20;23.17;;;25.50;89.70;;;;;;5032282;28;20500;-63
2022/08/17 10:36:57;;;;;;;31.77;21.27;;;25.40;90.40;;;;;;5037630;28;20044;-63
2022/08/17 10:39:53;;;;;;;30.67;22.02;;;25.40;90.10;;;;;;5037553;28;20116;-63
2022/08/17 10:42:49;;;;;;;30.98;23.77;;;25.30;90.50;;;;;;5039160;28;20045;-63
2022/08/17 10:45:29;;;;;;;31.95;22.65;;;25.10;90.60;;;;;;5039327;28;20444;-64
2022/08/17 10:48:27;;;;;;;32.75;23.20;;;25.10;90.80;;;;;;5041956;28;20060;-63
2022/08/17 10:50:56;;;;;;;31.80;22.55;;;25.10;90.90;;;;;;5038891;28;20061;-63
2022/08/17 10:53:30;;;;;;;33.17;22.37;;;25.00;91.10;;;;;;5045506;28;20050;-64
2022/08/17 10:56:11;;;;;;;33.47;22.38;;;25.00;91.10;;;;;;5037650;28;20080;-63
2022/08/17 10:58:53;;;;;;;30.38;21.77;;;25.10;91.20;;;;;;5034497;28;20381;-63
2022/08/17 11:01:42;;;;;;;31.77;22.00;;;25.10;91.30;;;;;;5042210;28;20140;-63
2022/08/17 11:04:42;;;;;;;30.33;23.02;;;25.20;91.00;;;;;;5030884;28;20088;-63
2022/08/17 11:07:10;;;;;;;31.17;21.25;;;25.10;91.00;;;;;;5037946;28;20045;-63
2022/08/17 11:10:00;;;;;;;32.10;21.73;;;25.20;91.00;;;;;;5034463;28;20034;-63
2022/08/17 11:12:51;;;;;;;28.02;21.02;;;25.40;90.90;;;;;;5043568;28;20060;-63
2022/08/17 11:15:45;;;;;;;32.67;22.63;;;25.60;90.70;;;;;;5042638;28;20048;-63
2022/08/17 11:18:49;;;;;;;31.23;21.17;;;25.80;90.40;;;;;;5034616;28;20128;-63
2022/08/17 11:21:33;;;;;;;27.60;21.80;;;26.00;90.20;;;;;;5039987;28;20144;-63
2022/08/17 11:24:13;;;;;;;30.45;20.90;;;26.10;90.10;;;;;;5040846;28;20053;-62
2022/08/17 11:26:46;;;;;;;40.45;20.98;;;26.30;88.90;;;;;;5040031;28;20389;-64
2022/08/17 11:29:27;;;;;;;32.70;23.23;;;26.30;88.70;;;;;;5048575;28;20029;-64
2022/08/17 11:32:00;;;;;;;25.63;19.25;;;26.40;87.60;;;;;;5045751;28;20037;-64
2022/08/17 11:34:28;;;;;;;29.85;22.73;;;26.30;87.60;;;;;;5051198;28;20044;-62
2022/08/17 11:37:03;;;;;;;26.20;20.27;;;26.30;87.70;;;;;;5041645;28;20401;-62
2022/08/17 11:40:00;;;;;;;26.50;18.73;;;26.30;87.30;;;;;;5040861;28;20049;-63
2022/08/17 11:42:52;;;;;;;30.13;21.67;;;26.30;87.00;;;;;;5042807;28;20060;-62
2022/08/17 11:45:43;;;;;;;24.38;19.35;;;26.20;86.60;;;;;;5047743;28;20048;-63
2022/08/17 11:51:34;;;;;;;29.48;22.00;;;26.20;84.50;;;;;;5036408;28;20416;-62
2022/08/17 11:54:29;;;;;;;27.33;20.20;;;26.10;86.30;;;;;;5053565;28;20106;-63
2022/08/17 11:56:58;;;;;;;36.28;21.10;;;26.10;86.00;;;;;;5049052;28;21591;-62
2022/08/17 11:59:37;;;;;;;27.38;20.70;;;26.00;85.60;;;;;;5040563;28;20128;-63
2022/08/17 12:02:33;;;;;;;28.95;19.58;;;26.00;85.10;;;;;;5031905;28;20148;-64
2022/08/17 12:05:15;;;;;;;25.48;19.23;;;26.00;84.40;;;;;;5033361;28;20092;-63
2022/08/17 12:07:59;;;;;;;30.42;23.25;;;25.90;84.80;;;;;;5036853;28;20033;-63
2022/08/17 12:10:33;;;;;;;32.50;25.05;;;25.90;85.00;;;;;;5043459;28;20087;-63
2022/08/17 12:13:08;;;;;;;37.90;27.98;;;25.90;84.90;;;;;;5052687;28;20547;-63
2022/08/17 12:15:40;;;;;;;31.83;24.23;;;25.80;84.70;;;;;;5036784;28;20042;-63
2022/08/17 12:18:05;;;;;;;32.28;25.50;;;25.60;85.00;;;;;;5049675;28;20084;-62
2022/08/17 12:20:37;;;;;;;34.22;27.17;;;25.50;85.50;;;;;;5049351;28;20064;-63
2022/08/17 12:23:09;;;;;;;32.08;25.92;;;25.50;85.60;;;;;;5052200;28;20037;-63
2022/08/17 12:25:38;;;;;;;32.78;24.45;;;25.40;85.80;;;;;;5048702;28;20045;-63
2022/08/17 12:28:18;;;;;;;37.33;28.73;;;25.40;85.80;;;;;;5033633;28;20091;-63
2022/08/17 12:30:48;;;;;;;33.92;26.23;;;25.50;86.00;;;;;;5050240;28;20092;-63
2022/08/17 12:33:14;;;;;;;;;;;25.60;85.80;;;;;;5038906;28;20040;-63
2022/08/17 12:35:41;;;;;;;36.00;26.48;;;25.80;85.90;;;;;;5044242;28;19917;-63
2022/08/17 12:38:08;;;;;;;33.92;24.67;;;25.90;85.60;;;;;;5048795;28;20044;-63
2022/08/17 12:40:34;;;;;;;31.48;24.52;;;26.20;85.20;;;;;;5039835;28;20040;-63
2022/08/17 12:43:03;;;;;;;40.45;24.95;;;26.40;84.70;;;;;;5032815;28;20049;-63
2022/08/17 12:45:30;;;;;;;53.83;24.53;;;26.50;84.20;;;;;;5031966;28;20088;-63
2022/08/17 12:48:01;;;;;;;42.88;25.75;;;26.40;84.00;;;;;;5031125;28;20291;-63
2022/08/17 12:50:27;;;;;;;34.92;26.48;;;26.60;83.70;;;;;;5034068;28;20079;-63
2022/08/17 12:52:54;;;;;;;33.30;26.13;;;26.40;84.00;;;;;;5064016;28;20037;-63
2022/08/17 12:55:24;;;;;;;35.60;26.92;;;26.30;84.10;;;;;;5032428;28;20107;-63
2022/08/17 12:57:53;;;;;;;32.78;25.73;;;26.20;84.20;;;;;;5032995;28;20091;-63
2022/08/17 13:00:18;;;;;;;34.78;28.10;;;26.20;84.70;;;;;;5041541;28;20047;-63
2022/08/17 13:02:51;;;;;;;33.05;25.05;;;26.10;85.20;;;;;;5050762;28;20048;-63
2022/08/17 13:05:28;;;;;;;34.60;25.60;;;25.90;86.40;;;;;;5050113;28;20788;-63
2022/08/17 13:07:56;;;;;;;68.72;26.45;;;25.80;85.90;;;;;;5052422;28;20049;-63
2022/08/17 13:10:30;;;;;;;38.70;25.52;;;25.80;86.10;;;;;;5044002;28;20139;-62
2022/08/17 13:12:56;;;;;;;39.72;24.98;;;25.70;86.50;;;;;;5049647;28;20041;-63
2022/08/17 13:15:53;;;;;;;36.92;24.02;;;25.70;86.80;;;;;;5051325;28;20424;-64
2022/08/17 13:18:39;;;;;;;29.48;21.65;;;25.60;87.20;;;;;;5050776;28;20064;-63
2022/08/17 13:21:20;;;;;;;29.05;22.52;;;25.60;87.60;;;;;;5049005;28;20051;-63
2022/08/17 13:24:09;;;;;;;27.42;20.98;;;25.60;87.90;;;;;;5051585;28;20045;-63
2022/08/17 13:26:44;;;;;;;27.33;21.45;;;25.70;88.40;;;;;;5052093;28;20500;-63
2022/08/17 13:29:29;;;;;;;31.70;23.77;;;25.60;88.30;;;;;;5050516;28;20037;-63